createdAt,value
2023-05-12T00:02:24.452Z,12.07
2023-05-12T00:04:53.444Z,12.05
2023-05-12T00:07:22.807Z,12.05
2023-05-12T00:09:50.915Z,12.02
2023-05-12T00:12:19.509Z,11.96
2023-05-12T00:14:48.532Z,11.91
2023-05-12T00:17:20.077Z,11.88
2023-05-12T00:19:55.492Z,11.88
2023-05-12T00:22:23.714Z,11.87
2023-05-12T00:24:52.086Z,11.86
2023-05-12T00:27:20.222Z,11.84
2023-05-12T00:29:50.804Z,11.82
2023-05-12T00:32:20.142Z,11.80
2023-05-12T00:34:50.089Z,11.77
2023-05-12T00:37:18.944Z,11.72
2023-05-12T00:39:48.173Z,11.70
2023-05-12T00:42:16.211Z,11.69
2023-05-12T00:44:48.841Z,11.67
2023-05-12T00:47:18.296Z,11.62
2023-05-12T00:49:46.406Z,11.58
2023-05-12T00:52:16.472Z,11.58
2023-05-12T00:54:46.390Z,11.57
2023-05-12T00:57:15.963Z,11.54
2023-05-12T00:59:45.408Z,11.51
2023-05-12T01:02:22.177Z,11.47
2023-05-12T01:04:50.589Z,11.44
2023-05-12T01:07:21.861Z,11.43
2023-05-12T01:09:54.788Z,11.38
2023-05-12T01:12:23.722Z,11.31
2023-05-12T01:14:52.769Z,11.27
2023-05-12T01:17:22.486Z,11.23
2023-05-12T01:19:53.650Z,11.22
2023-05-12T01:22:21.937Z,11.21
2023-05-12T01:24:52.590Z,11.18
2023-05-12T01:27:24.864Z,11.18
2023-05-12T01:29:54.730Z,11.18
2023-05-12T01:32:23.370Z,11.16
2023-05-12T01:34:51.471Z,11.15
2023-05-12T01:37:20.176Z,11.14
2023-05-12T01:39:49.503Z,11.14
2023-05-12T01:42:18.451Z,11.14
2023-05-12T01:44:46.658Z,11.16
2023-05-12T01:47:16.171Z,11.15
2023-05-12T01:49:45.299Z,11.15
2023-05-12T01:52:13.453Z,11.12
2023-05-12T01:54:41.418Z,11.09
2023-05-12T01:57:09.482Z,11.06
2023-05-12T01:59:37.981Z,11.02
2023-05-12T02:02:06.158Z,10.99
2023-05-12T02:04:34.079Z,10.95
2023-05-12T02:07:02.258Z,10.93
2023-05-12T02:09:31.204Z,10.90
2023-05-12T02:11:59.289Z,10.87
2023-05-12T02:14:28.614Z,10.88
2023-05-12T02:16:56.902Z,10.87
2023-05-12T02:19:27.434Z,10.83
2023-05-12T02:21:55.975Z,10.82
2023-05-12T02:24:24.407Z,10.79
2023-05-12T02:26:53.758Z,10.79
2023-05-12T02:29:22.671Z,10.78
2023-05-12T02:31:50.901Z,10.78
2023-05-12T02:34:20.437Z,10.75
2023-05-12T02:36:50.234Z,10.71
2023-05-12T02:39:21.986Z,10.73
2023-05-12T02:41:51.056Z,10.73
2023-05-12T02:44:21.842Z,10.73
2023-05-12T02:46:50.862Z,10.72
2023-05-12T02:49:20.024Z,10.72
2023-05-12T02:51:49.192Z,10.75
2023-05-12T02:54:17.423Z,10.79
2023-05-12T02:56:46.827Z,10.81
2023-05-12T02:59:15.026Z,10.81
2023-05-12T03:01:43.225Z,10.81
2023-05-12T03:04:11.246Z,10.83
2023-05-12T03:06:39.309Z,10.84
2023-05-12T03:09:07.370Z,10.84
2023-05-12T03:11:35.527Z,10.84
2023-05-12T03:14:03.846Z,10.87
2023-05-12T03:16:31.979Z,10.87
2023-05-12T03:19:00.308Z,10.87
2023-05-12T03:21:28.452Z,10.88
2023-05-12T03:23:56.809Z,10.89
2023-05-12T03:26:24.768Z,10.90
2023-05-12T03:28:52.918Z,10.91
2023-05-12T03:31:22.428Z,10.92
2023-05-12T03:33:51.491Z,10.92
2023-05-12T03:36:19.471Z,10.92
2023-05-12T03:38:48.615Z,10.92
2023-05-12T03:41:20.987Z,10.93
2023-05-12T03:43:50.596Z,10.95
2023-05-12T03:46:18.749Z,10.99
2023-05-12T03:48:48.784Z,11.02
2023-05-12T03:51:24.474Z,11.03
2023-05-12T03:53:53.453Z,11.05
2023-05-12T03:56:22.827Z,11.09
2023-05-12T03:58:53.170Z,11.10
2023-05-12T04:01:23.886Z,11.13
2023-05-12T04:03:53.042Z,11.13
2023-05-12T04:06:25.301Z,11.17
2023-05-12T04:08:55.208Z,11.23
2023-05-12T04:11:24.094Z,11.27
2023-05-12T04:14:00.022Z,11.30
2023-05-12T04:16:28.545Z,11.34
2023-05-12T04:18:57.071Z,11.40
2023-05-12T04:21:25.688Z,11.42
2023-05-12T04:23:54.069Z,11.45
2023-05-12T04:26:23.030Z,11.47
2023-05-12T04:28:52.121Z,11.50
2023-05-12T04:31:21.153Z,11.53
2023-05-12T04:33:49.386Z,11.57
2023-05-12T04:36:18.320Z,11.62
2023-05-12T04:38:46.565Z,11.68
2023-05-12T04:41:14.652Z,11.71
2023-05-12T04:46:13.558Z,11.79
2023-05-12T04:48:42.937Z,11.85
2023-05-12T04:51:10.793Z,11.90
2023-05-12T04:53:39.129Z,11.95
2023-05-12T04:56:07.565Z,12.01
2023-05-12T04:58:35.651Z,12.07
2023-05-12T05:01:04.601Z,12.13
2023-05-12T05:03:33.108Z,12.19
2023-05-12T05:06:01.080Z,12.22
2023-05-12T05:08:29.502Z,12.27
2023-05-12T05:10:57.632Z,12.31
2023-05-12T05:13:25.733Z,12.36
2023-05-12T05:15:56.524Z,12.44
2023-05-12T05:18:25.874Z,12.49
2023-05-12T05:20:58.763Z,12.53
2023-05-12T05:23:27.426Z,12.58
2023-05-12T05:25:56.137Z,12.62
2023-05-12T05:28:26.087Z,12.68
2023-05-12T05:30:55.135Z,12.75
2023-05-12T05:33:25.616Z,12.83
2023-05-12T05:35:54.755Z,12.89
2023-05-12T05:38:22.982Z,12.95
2023-05-12T05:40:54.298Z,12.99
2023-05-12T05:43:22.800Z,13.01
2023-05-12T05:45:51.020Z,13.07
2023-05-12T05:48:20.286Z,13.11
2023-05-12T05:50:48.358Z,13.18
2023-05-12T05:53:19.936Z,13.26
2023-05-12T05:55:48.536Z,13.38
2023-05-12T05:58:16.654Z,13.46
2023-05-12T06:00:44.733Z,13.52
2023-05-12T06:03:12.848Z,13.59
2023-05-12T06:05:42.654Z,13.67
2023-05-12T06:08:12.834Z,13.72
2023-05-12T06:10:41.135Z,13.73
2023-05-12T06:13:09.296Z,13.78
2023-05-12T06:15:37.764Z,13.87
2023-05-12T06:18:06.260Z,13.93
2023-05-12T06:20:34.356Z,13.97
2023-05-12T06:23:02.535Z,14.03
2023-05-12T06:25:32.712Z,14.09
2023-05-12T06:28:00.777Z,14.13
2023-05-12T06:30:29.641Z,14.18
2023-05-12T06:32:59.046Z,14.23
2023-05-12T06:35:29.807Z,14.33
2023-05-12T06:37:58.885Z,14.38
2023-05-12T06:40:28.067Z,14.43
2023-05-12T06:42:56.162Z,14.46
2023-05-12T06:45:24.238Z,14.51
2023-05-12T06:47:52.398Z,14.57
2023-05-12T06:50:20.694Z,14.64
2023-05-12T06:52:49.294Z,14.68
2023-05-12T06:55:20.164Z,14.70
2023-05-12T06:57:51.064Z,14.75
2023-05-12T07:00:19.754Z,14.75
2023-05-12T07:02:47.764Z,14.78
2023-05-12T07:05:16.087Z,14.83
2023-05-12T07:07:44.429Z,14.88
2023-05-12T07:10:12.667Z,14.87
2023-05-12T07:12:40.729Z,14.84
2023-05-12T07:15:11.040Z,14.85
2023-05-12T07:17:38.997Z,14.86
2023-05-12T07:20:09.241Z,14.85
2023-05-12T07:22:38.770Z,14.89
2023-05-12T07:25:07.664Z,14.90
2023-05-12T07:27:36.107Z,14.85
2023-05-12T07:30:05.160Z,14.86
2023-05-12T07:32:33.296Z,14.90
2023-05-12T07:35:04.620Z,14.94
2023-05-12T07:37:33.985Z,14.95
2023-05-12T07:40:02.617Z,14.93
2023-05-12T07:42:31.615Z,14.94
2023-05-12T07:44:59.863Z,14.96
2023-05-12T07:47:28.760Z,15.05
2023-05-12T07:49:57.530Z,15.16
2023-05-12T07:52:25.620Z,15.24
2023-05-12T07:54:55.712Z,15.30
2023-05-12T07:57:24.148Z,15.27
2023-05-12T07:59:52.464Z,15.23
2023-05-12T08:02:20.565Z,15.25
2023-05-12T08:04:50.440Z,15.29
2023-05-12T08:07:18.813Z,15.36
2023-05-12T08:09:46.738Z,15.44
2023-05-12T08:12:14.974Z,15.52
2023-05-12T08:14:43.796Z,15.62
2023-05-12T08:17:12.058Z,15.69
2023-05-12T08:19:41.927Z,15.69
2023-05-12T08:22:10.152Z,15.67
2023-05-12T08:24:38.451Z,15.70
2023-05-12T08:27:06.459Z,15.73
2023-05-12T08:29:35.300Z,15.78
2023-05-12T08:32:04.532Z,15.80
2023-05-12T08:34:32.644Z,15.82
2023-05-12T08:37:01.965Z,15.83
2023-05-12T08:39:30.734Z,15.85
2023-05-12T08:42:08.946Z,15.89
2023-05-12T08:44:37.971Z,15.93
2023-05-12T08:47:08.208Z,15.99
2023-05-12T08:49:38.577Z,16.05
2023-05-12T08:52:08.517Z,16.07
2023-05-12T08:54:48.679Z,16.05
2023-05-12T08:57:24.354Z,16.07
2023-05-12T08:59:55.873Z,16.11
2023-05-12T09:02:26.376Z,16.14
2023-05-12T09:04:55.514Z,16.19
2023-05-12T09:07:24.360Z,16.29
2023-05-12T09:09:54.632Z,16.39
2023-05-12T09:12:23.282Z,16.46
2023-05-12T09:14:54.735Z,16.48
2023-05-12T09:17:22.865Z,16.53
2023-05-12T09:19:50.983Z,16.48
2023-05-12T09:22:27.456Z,16.47
2023-05-12T09:24:57.208Z,16.51
2023-05-12T09:27:26.601Z,16.59
2023-05-12T09:29:59.709Z,16.65
2023-05-12T09:32:32.098Z,16.68
2023-05-12T09:35:06.066Z,16.71
2023-05-12T09:37:42.199Z,16.74
2023-05-12T09:40:14.237Z,16.78
2023-05-12T09:42:43.181Z,16.84
2023-05-12T09:45:14.112Z,16.82
2023-05-12T09:47:43.484Z,16.80
2023-05-12T09:50:12.051Z,16.81
2023-05-12T09:52:43.409Z,16.83
2023-05-12T09:55:12.651Z,16.81
2023-05-12T09:57:43.356Z,16.80
2023-05-12T10:00:26.395Z,16.82
2023-05-12T10:03:04.846Z,16.82
2023-05-12T10:05:44.158Z,16.82
2023-05-12T10:08:14.676Z,16.76
2023-05-12T10:10:44.168Z,16.73
2023-05-12T10:13:13.777Z,16.68
2023-05-12T10:15:45.606Z,16.65
2023-05-12T10:18:15.067Z,16.67
2023-05-12T10:20:45.637Z,16.72
2023-05-12T10:23:15.105Z,16.77
2023-05-12T10:25:44.286Z,16.78
2023-05-12T10:28:12.549Z,16.80
2023-05-12T10:30:41.841Z,16.83
2023-05-12T10:33:11.457Z,16.84
2023-05-12T10:35:40.976Z,16.81
2023-05-12T10:38:15.250Z,16.79
2023-05-12T10:40:52.887Z,16.80
2023-05-12T10:43:24.533Z,16.81
2023-05-12T10:46:08.851Z,16.78
2023-05-12T10:48:37.870Z,16.82
2023-05-12T10:51:09.565Z,16.86
2023-05-12T10:53:49.052Z,16.87
2023-05-12T10:56:23.624Z,16.86
2023-05-12T10:59:09.174Z,16.86
2023-05-12T11:01:37.993Z,16.86
2023-05-12T11:04:23.976Z,16.86
2023-05-12T11:07:02.970Z,16.87
2023-05-12T11:09:34.813Z,16.92
2023-05-12T11:12:04.470Z,16.97
2023-05-12T11:14:33.072Z,17.05
2023-05-12T11:17:01.359Z,17.16
2023-05-12T11:19:29.989Z,17.26
2023-05-12T11:21:58.910Z,17.36
2023-05-12T11:24:32.373Z,17.46
2023-05-12T11:27:02.090Z,17.52
2023-05-12T11:29:32.047Z,17.59
2023-05-12T11:32:00.497Z,17.61
2023-05-12T11:34:28.656Z,17.67
2023-05-12T11:36:57.262Z,17.74
2023-05-12T11:39:26.844Z,17.76
2023-05-12T11:42:11.661Z,17.77
2023-05-12T11:44:47.661Z,17.81
2023-05-12T11:47:19.109Z,17.84
2023-05-12T11:49:48.935Z,17.84
2023-05-12T11:52:17.902Z,17.86
2023-05-12T11:54:49.594Z,17.85
2023-05-12T11:57:27.618Z,17.90
2023-05-12T11:59:58.003Z,17.98
2023-05-12T12:02:26.993Z,18.04
2023-05-12T12:04:55.319Z,18.13
2023-05-12T12:07:30.912Z,18.22
2023-05-12T12:10:00.516Z,18.29
2023-05-12T12:12:28.637Z,18.35
2023-05-12T12:14:59.724Z,18.41
2023-05-12T12:17:30.335Z,18.48
2023-05-12T12:19:59.515Z,18.60
2023-05-12T12:22:27.481Z,18.72
2023-05-12T12:24:55.996Z,18.83
2023-05-12T12:27:24.379Z,18.92
2023-05-12T12:29:52.748Z,18.96
2023-05-12T12:32:20.930Z,19.00
2023-05-12T12:34:49.629Z,19.07
2023-05-12T12:37:18.568Z,19.12
2023-05-12T12:39:48.215Z,19.18
2023-05-12T12:42:16.543Z,19.25
2023-05-12T12:44:48.398Z,19.25
2023-05-12T12:47:17.067Z,19.26
2023-05-12T12:49:46.086Z,19.26
2023-05-12T12:52:14.252Z,19.26
2023-05-12T12:54:43.026Z,19.26
2023-05-12T12:57:11.265Z,19.24
2023-05-12T12:59:39.739Z,19.21
2023-05-12T13:02:08.688Z,19.21
2023-05-12T13:04:36.757Z,19.13
2023-05-12T13:07:05.409Z,19.13
2023-05-12T13:09:35.500Z,19.19
2023-05-12T13:12:03.996Z,19.24
2023-05-12T13:14:32.669Z,19.29
2023-05-12T13:17:01.542Z,19.32
2023-05-12T13:19:31.512Z,19.31
2023-05-12T13:21:59.804Z,19.32
2023-05-12T13:24:30.227Z,19.33
2023-05-12T13:26:58.487Z,19.32
2023-05-12T13:29:26.688Z,19.30
2023-05-12T13:31:55.168Z,19.28
2023-05-12T13:34:23.179Z,19.28
2023-05-12T13:36:53.601Z,19.30
2023-05-12T13:39:22.625Z,19.32
2023-05-12T13:41:51.683Z,19.34
2023-05-12T13:44:19.765Z,19.36
2023-05-12T13:46:49.131Z,19.45
2023-05-12T13:49:19.284Z,19.55
2023-05-12T13:51:47.134Z,19.66
2023-05-12T13:54:15.488Z,19.67
2023-05-12T13:56:43.385Z,19.68
2023-05-12T13:59:11.278Z,19.67
2023-05-12T14:01:39.529Z,19.68
2023-05-12T14:04:07.852Z,19.71
2023-05-12T14:06:36.199Z,19.76
2023-05-12T14:09:05.683Z,19.81
2023-05-12T14:11:33.895Z,19.88
2023-05-12T14:14:03.007Z,19.95
2023-05-12T14:16:31.147Z,19.99
2023-05-12T14:18:59.977Z,19.98
2023-05-12T14:21:28.094Z,19.98
2023-05-12T14:23:56.296Z,19.95
2023-05-12T14:26:25.645Z,19.93
2023-05-12T14:28:55.198Z,19.91
2023-05-12T14:31:24.220Z,19.88
2023-05-12T14:33:53.876Z,19.89
2023-05-12T14:36:22.456Z,19.91
2023-05-12T14:38:51.944Z,19.93
2023-05-12T14:41:21.779Z,19.94
2023-05-12T14:43:50.098Z,19.93
2023-05-12T14:46:18.219Z,19.90
2023-05-12T14:48:46.985Z,19.85
2023-05-12T14:51:15.024Z,19.80
2023-05-12T14:53:42.962Z,19.74
2023-05-12T14:56:11.023Z,19.71
2023-05-12T14:58:39.352Z,19.70
2023-05-12T15:01:09.465Z,19.71
2023-05-12T15:03:38.112Z,19.67
2023-05-12T15:06:08.078Z,19.60
2023-05-12T15:08:36.844Z,19.55
2023-05-12T15:11:04.923Z,19.48
2023-05-12T15:13:32.945Z,19.45
2023-05-12T15:16:02.419Z,19.42
2023-05-12T15:18:30.445Z,19.35
2023-05-12T15:20:58.792Z,19.31
2023-05-12T15:23:27.758Z,19.28
2023-05-12T15:25:55.901Z,19.21
2023-05-12T15:28:25.134Z,19.19
2023-05-12T15:30:58.299Z,19.16
2023-05-12T15:33:27.318Z,19.14
2023-05-12T15:35:55.376Z,19.09
2023-05-12T15:38:23.163Z,19.04
2023-05-12T15:40:51.665Z,19.00
2023-05-12T15:43:19.837Z,18.96
2023-05-12T15:45:48.210Z,18.95
2023-05-12T15:48:16.543Z,18.93
2023-05-12T15:50:44.633Z,18.89
2023-05-12T15:53:13.021Z,18.86
2023-05-12T15:55:42.917Z,18.85
2023-05-12T16:02:52.486Z,18.77
2023-05-12T16:05:23.882Z,18.74
2023-05-12T16:07:54.193Z,18.71
2023-05-12T16:10:22.726Z,18.66
2023-05-12T16:12:51.018Z,18.62
2023-05-12T16:15:19.904Z,18.58
2023-05-12T16:17:48.774Z,18.54
2023-05-12T16:20:16.969Z,18.50
2023-05-12T16:22:45.402Z,18.46
2023-05-12T16:25:13.889Z,18.40
2023-05-12T16:27:44.390Z,18.37
2023-05-12T16:30:13.618Z,18.32
2023-05-12T16:32:42.117Z,18.30
2023-05-12T16:35:10.802Z,18.27
2023-05-12T16:37:39.302Z,18.24
2023-05-12T16:40:09.568Z,18.21
2023-05-12T16:42:37.687Z,18.19
2023-05-12T16:45:07.132Z,18.18
2023-05-12T16:47:35.392Z,18.16
2023-05-12T16:50:07.798Z,18.11
2023-05-12T16:52:42.068Z,18.08
2023-05-12T16:55:23.010Z,18.05
2023-05-12T16:57:59.923Z,18.02
2023-05-12T17:00:38.584Z,17.99
2023-05-12T17:03:08.404Z,17.98
2023-05-12T17:05:37.980Z,17.94
2023-05-12T17:08:07.365Z,17.92
2023-05-12T17:10:35.938Z,17.91
2023-05-12T17:13:06.262Z,17.88
2023-05-12T17:15:36.731Z,17.83
2023-05-12T17:18:05.401Z,17.80
2023-05-12T17:20:33.470Z,17.78
2023-05-12T17:23:02.059Z,17.74
2023-05-12T17:25:30.854Z,17.71
2023-05-12T17:27:59.448Z,17.68
2023-05-12T17:30:28.736Z,17.66
2023-05-12T17:32:58.200Z,17.63
2023-05-12T17:35:26.708Z,17.59
2023-05-12T17:38:01.488Z,17.57
2023-05-12T17:40:30.895Z,17.54
2023-05-12T17:43:00.509Z,17.50
2023-05-12T17:45:29.804Z,17.49
2023-05-12T17:47:59.785Z,17.47
2023-05-12T17:50:29.694Z,17.42
2023-05-12T17:53:02.708Z,17.40
2023-05-12T17:55:32.701Z,17.37
2023-05-12T17:58:03.162Z,17.31
2023-05-12T18:00:33.027Z,17.29
2023-05-12T18:03:03.870Z,17.27
2023-05-12T18:05:36.709Z,17.25
2023-05-12T18:08:06.522Z,17.21
2023-05-12T18:10:36.517Z,17.18
2023-05-12T18:13:08.497Z,17.15
2023-05-12T18:15:44.229Z,17.13
2023-05-12T18:18:14.302Z,17.12
2023-05-12T18:20:43.039Z,17.10
2023-05-12T18:23:14.533Z,17.07
2023-05-12T18:25:47.165Z,17.02
2023-05-12T18:28:17.806Z,17.01
2023-05-12T18:30:50.423Z,16.98
2023-05-12T18:33:26.252Z,16.96
2023-05-12T18:40:29.593Z,16.89
2023-05-12T18:43:03.994Z,16.89
2023-05-12T18:45:52.431Z,16.87
2023-05-12T18:48:23.322Z,16.82
2023-05-12T18:51:14.888Z,16.77
2023-05-12T18:54:02.110Z,16.75
2023-05-12T18:56:34.780Z,16.73
2023-05-12T18:59:26.797Z,16.70
2023-05-12T19:01:57.100Z,16.67
2023-05-12T19:04:26.626Z,16.61
2023-05-12T19:06:54.603Z,16.58
2023-05-12T19:09:35.576Z,16.56
2023-05-12T19:12:19.376Z,16.53
2023-05-12T19:14:47.977Z,16.50
2023-05-12T19:17:17.265Z,16.48
2023-05-12T19:19:46.569Z,16.46
2023-05-12T19:22:33.453Z,16.47
2023-05-12T19:25:03.832Z,16.47
2023-05-12T19:27:38.749Z,16.45
2023-05-12T19:30:40.336Z,16.43
2023-05-12T19:33:35.462Z,16.39
2023-05-12T19:36:15.284Z,16.38
2023-05-12T19:39:55.997Z,16.37
2023-05-12T19:43:10.988Z,16.37
2023-05-12T19:45:59.996Z,16.36
2023-05-12T19:48:45.162Z,16.35
2023-05-12T19:51:26.256Z,16.35
2023-05-12T19:54:16.104Z,16.34
2023-05-12T19:57:05.475Z,16.33
2023-05-12T20:03:05.380Z,16.29
2023-05-12T20:05:48.411Z,16.25
2023-05-12T20:08:19.661Z,16.24
2023-05-12T20:10:50.916Z,16.24
2023-05-12T20:13:24.010Z,16.23
2023-05-12T20:16:07.273Z,16.23
2023-05-12T20:18:42.195Z,16.23
2023-05-12T20:21:16.901Z,16.20
2023-05-12T20:23:47.962Z,16.17
2023-05-12T20:26:20.437Z,16.15
2023-05-12T20:28:50.827Z,16.15
2023-05-12T20:31:23.856Z,16.15
2023-05-12T20:33:56.398Z,16.27
2023-05-12T20:36:24.462Z,16.43
2023-05-12T20:41:48.334Z,16.74
2023-05-12T20:47:13.819Z,16.87
2023-05-12T20:49:42.282Z,16.78
2023-05-12T20:52:21.368Z,16.70
2023-05-12T20:54:58.304Z,16.62
2023-05-12T20:57:29.595Z,16.55
2023-05-12T21:00:01.493Z,16.50
2023-05-12T21:02:36.348Z,16.43
2023-05-12T21:05:07.781Z,16.38
2023-05-12T21:07:39.095Z,16.31
2023-05-12T21:10:14.031Z,16.24
2023-05-12T21:12:55.059Z,16.18
2023-05-12T21:15:26.857Z,16.14
2023-05-12T21:17:59.136Z,16.10
2023-05-12T21:20:50.601Z,16.05
2023-05-12T21:23:20.419Z,16.03
2023-05-12T21:25:49.027Z,16.02
2023-05-12T21:28:21.337Z,15.98
2023-05-12T21:30:49.942Z,15.96
2023-05-12T21:33:18.388Z,15.93
2023-05-12T21:35:51.189Z,15.90
2023-05-12T21:38:23.456Z,15.87
2023-05-12T21:40:54.522Z,15.84
2023-05-12T21:43:24.206Z,15.80
2023-05-12T22:24:25.508Z,15.19
2023-05-12T22:26:55.325Z,15.05
2023-05-12T22:29:23.694Z,14.99
2023-05-12T22:31:53.588Z,14.97
2023-05-12T22:34:23.391Z,14.94
2023-05-12T22:36:51.733Z,14.88
2023-05-12T22:39:21.378Z,14.85
2023-05-12T22:41:50.947Z,14.80
2023-05-12T22:44:20.695Z,14.76
2023-05-12T22:46:50.807Z,14.70
2023-05-12T22:49:20.126Z,14.58
2023-05-12T22:51:48.992Z,14.44
2023-05-12T22:54:18.934Z,14.40
2023-05-12T22:56:48.138Z,14.33
2023-05-12T22:59:17.868Z,14.27
2023-05-12T23:01:54.711Z,14.23
2023-05-12T23:04:23.764Z,14.22
2023-05-12T23:07:00.797Z,14.22
2023-05-12T23:09:33.880Z,14.19
2023-05-12T23:12:02.870Z,14.16
2023-05-12T23:14:32.963Z,14.14
2023-05-12T23:17:01.646Z,14.13
2023-05-12T23:19:33.068Z,14.12
2023-05-12T23:22:28.427Z,14.12
2023-05-12T23:24:58.498Z,14.11
2023-05-12T23:27:32.432Z,14.07
2023-05-12T23:30:04.505Z,14.04
2023-05-12T23:32:36.126Z,14.01
2023-05-12T23:35:07.096Z,13.91
2023-05-12T23:37:39.583Z,13.82
2023-05-12T23:40:14.601Z,13.71
2023-05-12T23:42:44.006Z,13.67
2023-05-12T23:45:12.588Z,13.55
2023-05-12T23:47:42.004Z,13.51
2023-05-12T23:50:11.401Z,13.52
2023-05-12T23:52:42.497Z,13.54
2023-05-12T23:55:12.225Z,13.53
2023-05-12T23:57:43.988Z,13.54
